Observations for Trim Patrick St
| Time | AQI | Temp °C | Hum % | Pres Pa | CO μg/m³ | H₂S μg/m³ | NO μg/m³ | NO₂ μg/m³ | O₃ μg/m³ | SO₂ μg/m³ | PM1 μg/m³ | PM2.5 μg/m³ | PM10 μg/m³ |
|---|---|---|---|---|---|---|---|---|---|---|---|---|---|
| Friday 28 August 2026 | |||||||||||||
| 11:37 | 2 | 23.9 | 72 | 38,460 | 0.01 | 0 | 2.12 | 0 | 50.89 | 7.6 | 15.71 | 23.63 | 25.99 |
| 11:36 | 2 | 23.9 | 71 | 38,460 | 0 | 0 | 2.12 | 0 | 42.19 | 7.42 | 14.86 | 21.58 | 23.74 |
| 11:35 | 2 | 23.8 | 70 | 38,460 | 0.02 | 0 | 2.01 | 1.28 | 39.28 | 6.44 | 16.57 | 26.8 | 29.48 |
| 11:32 | 2 | 23.6 | 72 | 38,460 | 0.07 | 0 | 2.09 | 0.35 | 38.94 | 7 | 15.71 | 23 | 25.29 |
| 11:31 | 2 | 23.6 | 71 | 38,460 | 0.07 | 0 | 2.06 | 0.56 | 40.32 | 6.93 | 14.86 | 23.1 | 25.41 |
| 11:30 | 2 | 23.6 | 72 | 38,460 | 0.09 | 0 | 2.16 | 6.87 | 42.41 | 5.64 | 16.57 | 23.71 | 26.08 |
| 11:29 | 2 | 23.6 | 73 | 38,460 | 0.08 | 0 | 2.17 | 0 | 22.15 | 6.73 | 16.57 | 21.4 | 23.54 |
| 11:28 | 2 | 23.6 | 72 | 38,460 | 0.11 | 0 | 2.12 | 0 | 38.59 | 6.4 | 14 | 22.9 | 25.19 |
| 11:27 | 2 | 23.6 | 70 | 38,460 | 0.14 | 0 | 2.05 | 0 | 36.42 | 6.06 | 18.29 | 25.31 | 27.84 |
| 11:26 | 2 | 23.6 | 70 | 38,460 | 0.18 | 0 | 2.05 | 0 | 8.78 | 7.5 | 15.71 | 25.31 | 27.84 |
| 11:24 | 2 | 23.6 | 72 | 38,460 | 0.21 | 0 | 2.13 | 0.14 | 30.57 | 7.54 | 17.43 | 24.32 | 26.75 |
| 11:21 | 2 | 23.4 | 74 | 38,460 | 0.13 | 0 | 2.14 | 3.31 | 56.84 | 5.91 | 16.57 | 22.02 | 24.22 |
| 11:20 | 2 | 23.3 | 73 | 38,460 | 0.11 | 0 | 2.05 | 0 | 45.53 | 5.79 | 18.29 | 25.74 | 28.32 |
| 11:19 | 2 | 23.2 | 74 | 38,460 | 0.11 | 0 | 2.09 | 0 | 48.86 | 5.86 | 18.29 | 26.99 | 29.69 |
| 11:18 | 2 | 23 | 74 | 38,460 | 0.11 | 0 | 2.05 | 0 | 41.12 | 6.15 | 18.29 | 24.89 | 27.38 |
| 11:17 | 2 | 22.9 | 74 | 38,460 | 0.07 | 0.61 | 2.06 | 3.55 | 58 | 5.97 | 16.57 | 22 | 24.2 |
| 11:16 | 2 | 22.6 | 73 | 38,460 | 0.05 | 0 | 1.93 | 5.2 | 45.52 | 5.72 | 15.71 | 22.86 | 25.14 |
| 11:15 | 2 | 22.4 | 74 | 38,460 | 0.02 | 0 | 1.95 | 0.63 | 54.97 | 6.05 | 17.43 | 25.62 | 26.01 |
| 11:14 | 2 | 22.2 | 74 | 38,460 | 0.01 | 0 | 1.97 | 0.53 | 46.14 | 5.35 | 17.43 | 25.56 | 28.11 |
| 11:13 | 2 | 22.1 | 75 | 38,460 | 0 | 0 | 2.01 | 0 | 52.9 | 5.37 | 19.14 | 26.81 | 29.49 |